createdAt,value
2023-09-23T00:00:05.094Z,76.69
2023-09-23T00:01:04.889Z,76.52
2023-09-23T00:02:04.925Z,76.59
2023-09-23T00:03:06.090Z,76.6
2023-09-23T00:04:06.089Z,76.56
2023-09-23T00:05:07.088Z,76.5
2023-09-23T00:06:06.861Z,76.5
2023-09-23T00:07:07.305Z,76.46
2023-09-23T00:08:08.250Z,76.35
2023-09-23T00:09:08.194Z,76.36
2023-09-23T00:10:10.250Z,76.36
2023-09-23T00:11:09.573Z,76.33
2023-09-23T00:12:09.672Z,76.31
2023-09-23T00:13:10.000Z,76.21
2023-09-23T00:14:10.636Z,76.01
2023-09-23T00:15:11.556Z,76.06
2023-09-23T00:16:12.428Z,76.13
2023-09-23T00:17:11.770Z,76.05
2023-09-23T00:18:12.458Z,76.25
2023-09-23T00:19:12.397Z,76.25
2023-09-23T00:20:13.452Z,76.47
2023-09-23T00:21:13.335Z,76.62
2023-09-23T00:22:13.749Z,76.58
2023-09-23T00:23:14.916Z,76.74
2023-09-23T00:24:14.671Z,76.73
2023-09-23T00:25:16.429Z,76.75
2023-09-23T00:26:15.614Z,76.85
2023-09-23T00:27:15.931Z,76.71
2023-09-23T00:28:16.486Z,76.9
2023-09-23T00:29:16.921Z,77.02
2023-09-23T00:30:17.166Z,77.14
2023-09-23T00:31:17.541Z,77.22
2023-09-23T00:32:18.057Z,77.37
2023-09-23T00:33:19.163Z,77.39
2023-09-23T00:34:19.548Z,77.12
2023-09-23T00:35:20.644Z,77.19
2023-09-23T00:36:20.391Z,77.29
2023-09-23T00:37:20.856Z,77.47
2023-09-23T00:38:21.320Z,77.71
2023-09-23T00:39:21.842Z,77.43
2023-09-23T00:40:22.258Z,77.35
2023-09-23T00:41:22.885Z,77.48
2023-09-23T00:42:23.153Z,77.53
2023-09-23T00:43:23.609Z,77.68
2023-09-23T00:44:24.024Z,77.61
2023-09-23T00:45:24.741Z,77.7
2023-09-23T00:46:25.031Z,77.78
2023-09-23T00:47:25.461Z,78
2023-09-23T00:48:26.702Z,77.9
2023-09-23T00:49:26.624Z,77.9
2023-09-23T00:50:27.755Z,77.87
2023-09-23T00:51:28.674Z,77.95
2023-09-23T00:52:27.777Z,77.81
2023-09-23T00:53:29.444Z,78.04
2023-09-23T00:54:28.913Z,78.32
2023-09-23T00:55:29.535Z,78.39
2023-09-23T00:56:30.046Z,78.31
2023-09-23T00:57:30.665Z,78.29
2023-09-23T00:58:30.662Z,78.31
2023-09-23T00:59:30.988Z,78.49
2023-09-23T01:00:31.522Z,78.67
2023-09-23T01:01:31.865Z,78.66
2023-09-23T01:02:32.448Z,78.77
2023-09-23T01:03:33.049Z,78.75
2023-09-23T01:04:33.954Z,78.5
2023-09-23T01:05:33.583Z,78.31
2023-09-23T01:06:34.130Z,78.41
2023-09-23T01:07:34.544Z,78.31
2023-09-23T01:08:35.361Z,78.62
2023-09-23T01:09:35.554Z,78.78
2023-09-23T01:10:35.997Z,78.88
2023-09-23T01:11:36.394Z,79.01
2023-09-23T01:12:36.808Z,79.1
2023-09-23T01:13:37.405Z,78.77
2023-09-23T01:14:37.751Z,79
2023-09-23T01:15:38.491Z,79.05
2023-09-23T01:16:38.820Z,79.22
2023-09-23T01:17:39.109Z,79.31
2023-09-23T01:18:41.048Z,79.15
2023-09-23T01:19:40.308Z,79.57
2023-09-23T01:20:41.771Z,79.43
2023-09-23T01:21:41.190Z,79.66
2023-09-23T01:22:41.626Z,79.46
2023-09-23T01:23:42.199Z,79.73
2023-09-23T01:24:42.523Z,79.69
2023-09-23T01:25:43.290Z,79.54
2023-09-23T01:26:43.755Z,80.08
2023-09-23T01:27:43.872Z,80.2
2023-09-23T01:28:44.684Z,80.36
2023-09-23T01:29:44.925Z,80.69
2023-09-23T01:30:45.617Z,80.34
2023-09-23T01:32:49.096Z,80.8
2023-09-23T01:33:47.528Z,80.74
2023-09-23T01:34:48.113Z,80.82
2023-09-23T01:35:48.329Z,80.68
2023-09-23T01:36:48.742Z,81.17
2023-09-23T01:37:49.818Z,81.71
2023-09-23T01:38:49.994Z,81.61
2023-09-23T01:39:50.333Z,81.79
2023-09-23T01:40:50.693Z,81.48
2023-09-23T01:41:51.040Z,81.46
2023-09-23T01:42:51.553Z,81.62
2023-09-23T01:43:52.096Z,81.51
2023-09-23T01:44:52.482Z,81.29
2023-09-23T01:45:52.901Z,81.49
2023-09-23T01:46:53.389Z,81.82
2023-09-23T01:47:54.838Z,81.65
2023-09-23T01:48:54.350Z,81.38
2023-09-23T01:49:54.822Z,81.15
2023-09-23T01:50:55.188Z,81.51
2023-09-23T01:51:56.019Z,81.54
2023-09-23T01:52:56.364Z,81.48
2023-09-23T01:53:56.640Z,81.75
2023-09-23T01:54:57.052Z,81.89
2023-09-23T01:55:57.636Z,81.8
2023-09-23T01:56:58.005Z,81.93
2023-09-23T01:57:58.373Z,81.99
2023-09-23T01:58:59.180Z,82.17
2023-09-23T01:59:59.351Z,82.19
2023-09-23T02:01:00.027Z,82.07
2023-09-23T02:02:00.381Z,81.89
2023-09-23T02:03:00.866Z,81.88
2023-09-23T02:04:01.310Z,81.82
2023-09-23T02:05:01.691Z,81.63
2023-09-23T02:06:02.242Z,82.24
2023-09-23T02:07:02.793Z,82.39
2023-09-23T02:08:03.683Z,82.58
2023-09-23T02:09:04.739Z,82.54
2023-09-23T02:10:04.548Z,82.82
2023-09-23T02:11:04.793Z,82.77
2023-09-23T02:12:05.480Z,82.78
2023-09-23T02:13:05.377Z,82.7
2023-09-23T02:14:06.832Z,82.81
2023-09-23T02:15:07.201Z,82.77
2023-09-23T02:16:06.843Z,82.92
2023-09-23T02:17:07.519Z,82.89
2023-09-23T02:18:08.090Z,82.76
2023-09-23T02:19:08.799Z,82.86
2023-09-23T02:20:09.907Z,82.99
2023-09-23T02:21:09.108Z,83.07
2023-09-23T02:22:09.530Z,83.12
2023-09-23T02:23:10.008Z,82.46
2023-09-23T02:24:10.573Z,82.74
2023-09-23T02:25:10.978Z,82.76
2023-09-23T02:26:11.498Z,83.03
2023-09-23T02:27:11.935Z,83.1
2023-09-23T02:28:12.349Z,83.14
2023-09-23T02:29:16.535Z,82.79
2023-09-23T02:30:15.558Z,82.93
2023-09-23T02:31:14.665Z,83.34
2023-09-23T02:32:14.972Z,83.47
2023-09-23T02:33:15.458Z,83.34
2023-09-23T02:34:16.808Z,83.4
2023-09-23T02:35:17.723Z,83.59
2023-09-23T02:36:16.912Z,83.8
2023-09-23T02:37:17.308Z,83.95
2023-09-23T02:38:18.053Z,84.01
2023-09-23T02:39:19.135Z,84
2023-09-23T02:40:18.795Z,84.05
2023-09-23T02:41:19.131Z,84.2
2023-09-23T02:42:19.505Z,84.17
2023-09-23T02:43:20.026Z,84.07
2023-09-23T02:44:21.502Z,84.16
2023-09-23T02:45:21.464Z,84.28
2023-09-23T02:46:21.561Z,84.33
2023-09-23T02:47:22.094Z,84.34
2023-09-23T02:48:22.206Z,84.33
2023-09-23T02:49:22.819Z,84.58
2023-09-23T02:50:23.736Z,84.3
2023-09-23T02:51:23.675Z,84.63
2023-09-23T02:52:24.182Z,84.83
2023-09-23T02:53:24.703Z,84.76
2023-09-23T02:54:25.109Z,84.79
2023-09-23T02:55:25.534Z,84.91
2023-09-23T02:56:26.156Z,84.73
2023-09-23T02:57:26.469Z,84.89
2023-09-23T02:58:26.981Z,84.99
2023-09-23T02:59:27.435Z,85.05
2023-09-23T03:00:27.699Z,85.16
2023-09-23T03:01:28.553Z,85.32
2023-09-23T03:02:29.022Z,85.51
2023-09-23T03:03:29.306Z,85.51
2023-09-23T03:04:29.782Z,85.59
2023-09-23T03:05:30.943Z,85.57
2023-09-23T03:06:30.510Z,85.32
2023-09-23T03:07:31.780Z,85.25
2023-09-23T03:08:31.448Z,85.37
2023-09-23T03:09:32.717Z,85.51
2023-09-23T03:10:32.383Z,85.33
2023-09-23T03:11:32.811Z,85.41
2023-09-23T03:12:33.186Z,85.43
2023-09-23T03:13:33.726Z,85.58
2023-09-23T03:14:34.265Z,85.53
2023-09-23T03:15:44.082Z,85.45
2023-09-23T03:16:36.450Z,85.73
2023-09-23T03:17:37.212Z,85.65
2023-09-23T03:18:37.657Z,85.74
2023-09-23T03:19:38.276Z,85.78
2023-09-23T03:20:38.383Z,85.81
2023-09-23T03:21:39.513Z,85.87
2023-09-23T03:22:40.657Z,85.89
2023-09-23T03:23:40.700Z,85.92
2023-09-23T03:24:40.245Z,85.87
2023-09-23T03:25:48.209Z,85.66
2023-09-23T03:26:40.879Z,85.32
2023-09-23T03:27:41.293Z,85.52
2023-09-23T03:28:42.107Z,85.87
2023-09-23T03:29:42.227Z,86.09
2023-09-23T03:30:42.954Z,86.22
2023-09-23T03:31:43.125Z,86.33
2023-09-23T03:32:45.400Z,86.2
2023-09-23T03:33:44.543Z,86.02
2023-09-23T03:34:45.175Z,86.46
2023-09-23T03:35:45.530Z,86.5
2023-09-23T03:36:45.995Z,86.62
2023-09-23T03:37:50.770Z,86.77
2023-09-23T03:38:48.590Z,86.63
2023-09-23T03:39:48.955Z,86.62
2023-09-23T03:40:53.053Z,86.83
2023-09-23T03:41:50.318Z,86.77
2023-09-23T03:42:51.012Z,86.73
2023-09-23T03:43:51.276Z,86.96
2023-09-23T03:44:51.741Z,87.07
2023-09-23T03:45:52.906Z,87.33
2023-09-23T03:46:52.585Z,87.32
2023-09-23T03:47:53.104Z,87.23
2023-09-23T03:48:53.526Z,86.86
2023-09-23T03:49:54.168Z,87.57
2023-09-23T03:50:55.234Z,87.7
2023-09-23T03:51:54.862Z,87.62
2023-09-23T03:52:55.502Z,87.44
2023-09-23T03:53:55.795Z,87.31
2023-09-23T03:54:56.422Z,87.25
2023-09-23T03:56:01.210Z,87.12
2023-09-23T03:56:58.573Z,87.16
2023-09-23T03:57:59.107Z,87.04
2023-09-23T03:58:59.650Z,87.27
2023-09-23T04:00:00.157Z,87.44
2023-09-23T04:01:03.707Z,87.28
2023-09-23T04:02:01.450Z,87.44
2023-09-23T04:03:02.163Z,87.47
2023-09-23T04:04:02.223Z,87.51
2023-09-23T04:05:02.776Z,87.61
2023-09-23T04:06:03.148Z,87.78
2023-09-23T04:07:03.473Z,87.8
2023-09-23T04:08:04.624Z,87.4
2023-09-23T04:09:04.405Z,87.36
2023-09-23T04:10:05.939Z,87.41
2023-09-23T04:11:05.892Z,87.31
2023-09-23T04:12:06.505Z,87.3
2023-09-23T04:13:06.168Z,87.44
2023-09-23T04:14:06.726Z,87.5
2023-09-23T04:15:08.320Z,87.44
2023-09-23T04:16:07.666Z,87.54
2023-09-23T04:17:08.051Z,87.48
2023-09-23T04:18:08.592Z,87.46
2023-09-23T04:19:08.937Z,87.46
2023-09-23T04:20:11.107Z,87.32
2023-09-23T04:21:09.752Z,87.44
2023-09-23T04:22:10.421Z,87.42
2023-09-23T04:23:10.765Z,87.67
2023-09-23T04:24:11.265Z,87.8
2023-09-23T04:25:11.785Z,87.94
2023-09-23T04:26:12.101Z,87.8
2023-09-23T04:27:12.603Z,87.63
2023-09-23T04:28:13.230Z,87.56
2023-09-23T04:29:13.674Z,87.61
2023-09-23T04:30:14.155Z,87.75
2023-09-23T04:31:14.484Z,87.59
2023-09-23T04:32:15.489Z,87.41
2023-09-23T04:33:15.975Z,87.46
2023-09-23T04:34:16.437Z,87.51
2023-09-23T04:35:17.434Z,87.58
2023-09-23T04:36:17.276Z,87.55
2023-09-23T04:37:17.688Z,87.4
2023-09-23T04:38:18.485Z,87.24
2023-09-23T04:39:18.724Z,87.25
2023-09-23T04:40:19.277Z,87.15
2023-09-23T04:41:19.624Z,86.83
2023-09-23T04:42:20.074Z,86.59
2023-09-23T04:43:20.497Z,86.29
2023-09-23T04:44:20.942Z,86.35
2023-09-23T04:45:21.697Z,86.28
2023-09-23T04:46:21.974Z,86.31
2023-09-23T04:47:22.412Z,86.04
2023-09-23T04:48:22.912Z,85.92
2023-09-23T04:49:23.419Z,85.82
2023-09-23T04:50:23.854Z,85.3
2023-09-23T04:51:24.136Z,85.14
2023-09-23T04:52:24.770Z,85.29
2023-09-23T04:53:25.295Z,85.31
2023-09-23T04:54:25.599Z,85.33
2023-09-23T04:55:26.241Z,84.95
2023-09-23T04:56:26.654Z,84.69
2023-09-23T04:57:27.256Z,84.67
2023-09-23T04:58:27.448Z,84.56
2023-09-23T04:59:28.039Z,84.24
2023-09-23T05:00:28.390Z,84.4
2023-09-23T05:01:29.116Z,84.43
2023-09-23T05:02:29.302Z,84.19
2023-09-23T05:03:29.849Z,84.41
2023-09-23T05:04:30.415Z,84.28
2023-09-23T05:05:30.760Z,84.35
2023-09-23T05:06:31.100Z,84.1
2023-09-23T05:07:31.624Z,84.18
2023-09-23T05:08:32.015Z,84.2
2023-09-23T05:09:32.663Z,84.03
2023-09-23T05:10:33.804Z,84.06
2023-09-23T05:11:33.402Z,83.98
2023-09-23T05:12:34.061Z,83.61
2023-09-23T05:13:34.322Z,83.68
2023-09-23T05:14:34.820Z,83.79
2023-09-23T05:15:35.420Z,83.59
2023-09-23T05:16:35.666Z,83.66
2023-09-23T05:17:36.192Z,83.98
2023-09-23T05:18:36.842Z,84.16
2023-09-23T05:19:37.231Z,83.98
2023-09-23T05:20:37.812Z,84.12
2023-09-23T05:21:38.167Z,83.79
2023-09-23T05:22:38.567Z,83.87
2023-09-23T05:23:38.987Z,83.86
2023-09-23T05:24:40.244Z,83.83
2023-09-23T05:25:40.017Z,83.76
2023-09-23T05:26:40.335Z,83.77
2023-09-23T05:27:41.057Z,83.7
2023-09-23T05:28:41.382Z,83.7
2023-09-23T05:29:42.281Z,83.67
2023-09-23T05:30:42.890Z,83.51
2023-09-23T05:31:42.949Z,83.4
2023-09-23T05:32:43.293Z,83.48
2023-09-23T05:33:43.693Z,83.42
2023-09-23T05:34:44.316Z,83.31
2023-09-23T05:35:44.604Z,83.34
2023-09-23T05:36:45.189Z,83.4
2023-09-23T05:37:45.564Z,83.34
2023-09-23T05:38:46.199Z,83.28
2023-09-23T05:39:46.477Z,83.16
2023-09-23T05:40:47.045Z,82.96
2023-09-23T05:41:47.827Z,82.98
2023-09-23T05:42:48.021Z,83.07
2023-09-23T05:43:49.903Z,82.96
2023-09-23T05:44:48.749Z,83.08
2023-09-23T05:45:49.264Z,82.87
2023-09-23T05:46:49.943Z,82.88
2023-09-23T05:47:50.253Z,82.78
2023-09-23T05:48:50.639Z,83.04
2023-09-23T05:49:51.068Z,82.66
2023-09-23T05:50:51.657Z,82.62
2023-09-23T05:51:52.076Z,82.69
2023-09-23T05:52:52.496Z,82.54
2023-09-23T05:53:53.000Z,82.44
2023-09-23T05:54:53.317Z,82.41
2023-09-23T05:55:53.944Z,82.28
2023-09-23T05:56:54.248Z,82.38
2023-09-23T05:57:54.840Z,82.25
2023-09-23T05:58:55.430Z,81.97
2023-09-23T05:59:55.617Z,82.04
2023-09-23T06:00:56.459Z,81.87
2023-09-23T06:01:56.689Z,82.07
2023-09-23T06:02:56.912Z,82.15
2023-09-23T06:03:57.628Z,82.15
2023-09-23T06:04:57.847Z,81.56
2023-09-23T06:05:58.317Z,80.97
2023-09-23T06:06:58.540Z,80.77
2023-09-23T06:07:58.865Z,80.87
2023-09-23T06:08:59.463Z,80.52
2023-09-23T06:10:00.221Z,80.21
2023-09-23T06:11:04.104Z,79.86
2023-09-23T06:12:01.400Z,79.77
2023-09-23T06:13:01.847Z,79.38
2023-09-23T06:14:02.579Z,79.33
2023-09-23T06:15:04.739Z,79.25
2023-09-23T06:16:04.425Z,78.99
2023-09-23T06:17:03.413Z,78.81
2023-09-23T06:18:04.204Z,78.76
2023-09-23T06:19:04.122Z,78.55
2023-09-23T06:20:05.484Z,78.54
2023-09-23T06:21:05.794Z,78.44
2023-09-23T06:22:05.281Z,78.37
2023-09-23T06:23:05.645Z,77.95
2023-09-23T06:24:06.631Z,78.07
2023-09-23T06:25:07.258Z,77.41
2023-09-23T06:26:06.805Z,77.38
2023-09-23T06:27:07.066Z,77.41
2023-09-23T06:28:07.663Z,76.91
2023-09-23T06:29:07.915Z,77.23
2023-09-23T06:30:09.014Z,77.18
2023-09-23T06:31:09.113Z,77.02
2023-09-23T06:32:09.005Z,77.13
2023-09-23T06:33:09.574Z,77.07
2023-09-23T06:34:09.961Z,76.44
2023-09-23T06:35:10.550Z,76.31
2023-09-23T06:36:10.611Z,76.7
2023-09-23T06:37:11.030Z,76.63
2023-09-23T06:38:11.325Z,76.4
2023-09-23T06:39:11.632Z,76.43
2023-09-23T06:40:12.267Z,76.21
2023-09-23T06:41:12.719Z,76.12
2023-09-23T06:42:13.106Z,76.11
2023-09-23T06:43:13.363Z,75.76
2023-09-23T06:44:13.857Z,75.37
2023-09-23T06:45:14.584Z,75.43
2023-09-23T06:46:14.592Z,75.46
2023-09-23T06:47:14.825Z,75.45
2023-09-23T06:48:15.113Z,75.46
2023-09-23T06:49:15.515Z,75.5
2023-09-23T06:50:16.148Z,75.36
2023-09-23T06:51:16.344Z,74.8
2023-09-23T06:52:16.729Z,74.64
2023-09-23T06:53:17.275Z,74.81
2023-09-23T06:54:17.532Z,74.38
2023-09-23T06:55:18.011Z,74.53
2023-09-23T06:56:18.363Z,74.76
2023-09-23T06:57:18.739Z,74.34
2023-09-23T06:58:19.005Z,74.4
2023-09-23T06:59:19.485Z,74.55
2023-09-23T07:00:19.878Z,74.57
2023-09-23T07:01:20.245Z,74.94
2023-09-23T07:02:20.711Z,74.98
2023-09-23T07:03:21.750Z,75.06
2023-09-23T07:04:21.801Z,74.96
2023-09-23T07:05:21.786Z,74.91
2023-09-23T07:06:22.254Z,75.25
2023-09-23T07:07:22.586Z,75.29
2023-09-23T07:08:23.150Z,74.9
2023-09-23T07:09:23.201Z,75.46
2023-09-23T07:10:23.730Z,75.22
2023-09-23T07:11:24.489Z,75.19
2023-09-23T07:12:24.562Z,75.13
2023-09-23T07:13:24.771Z,74.83
2023-09-23T07:14:25.349Z,74.19
2023-09-23T07:15:25.721Z,73.78
2023-09-23T07:16:26.606Z,73.49
2023-09-23T07:17:27.659Z,72.99
2023-09-23T07:18:26.942Z,73.02
2023-09-23T07:19:27.292Z,72.55
2023-09-23T07:20:28.284Z,72.29
2023-09-23T07:21:29.140Z,72.41
2023-09-23T07:22:28.436Z,72.65
2023-09-23T07:23:29.019Z,72.57
2023-09-23T07:24:29.246Z,72.44
2023-09-23T07:25:29.879Z,72.33
2023-09-23T07:26:30.215Z,72.61
2023-09-23T07:27:30.282Z,72.95
2023-09-23T07:28:30.923Z,72.77
2023-09-23T07:29:33.075Z,72.62
2023-09-23T07:30:34.598Z,72.27
2023-09-23T07:31:32.063Z,71.77
2023-09-23T07:32:32.482Z,72.39
2023-09-23T07:33:32.974Z,72.92
2023-09-23T07:34:33.234Z,72.63
2023-09-23T07:35:34.073Z,72.87
2023-09-23T07:36:34.037Z,72.68
2023-09-23T07:37:34.833Z,72.84
2023-09-23T07:38:34.801Z,72.38
2023-09-23T07:39:35.179Z,72.3
2023-09-23T07:40:39.794Z,72.13
2023-09-23T07:41:37.144Z,72.13
2023-09-23T07:42:37.564Z,72.05
2023-09-23T07:43:38.177Z,71.75
2023-09-23T07:44:38.277Z,71.85
2023-09-23T07:45:38.514Z,71.94
2023-09-23T07:46:39.123Z,71.68
2023-09-23T07:47:39.602Z,71.76
2023-09-23T07:48:39.839Z,72.01
2023-09-23T07:49:40.276Z,72.14
2023-09-23T07:50:40.582Z,71.64
2023-09-23T07:51:41.100Z,71.36
2023-09-23T07:52:41.484Z,71.5
2023-09-23T07:53:41.944Z,71.13
2023-09-23T07:54:42.443Z,71.5
2023-09-23T07:55:42.554Z,71.76
2023-09-23T07:56:43.089Z,71.59
2023-09-23T07:57:43.411Z,71.92
2023-09-23T07:58:43.905Z,72.2
2023-09-23T07:59:44.111Z,72.55
2023-09-23T08:00:44.841Z,72.32
2023-09-23T08:01:45.094Z,72.78
2023-09-23T08:02:45.384Z,72.75
2023-09-23T08:03:46.325Z,72.76
2023-09-23T08:04:46.350Z,72.23
2023-09-23T08:05:46.761Z,72.04
2023-09-23T08:06:47.038Z,72.13
2023-09-23T08:07:47.343Z,72.47
2023-09-23T08:08:48.280Z,72.67
2023-09-23T08:09:48.185Z,72.14
2023-09-23T08:10:48.661Z,72.27
2023-09-23T08:11:49.813Z,72.58
2023-09-23T08:12:49.438Z,72.61
2023-09-23T08:13:50.180Z,72.6
2023-09-23T08:14:50.153Z,72.81
2023-09-23T08:15:50.509Z,72.85
2023-09-23T08:16:51.411Z,72.77
2023-09-23T08:17:51.429Z,73.48
2023-09-23T08:18:51.829Z,73.43
2023-09-23T08:19:52.840Z,72.92
2023-09-23T08:21:01.741Z,73
2023-09-23T08:21:54.710Z,72.9
2023-09-23T08:22:56.787Z,72.5
2023-09-23T08:23:56.453Z,72.49
2023-09-23T08:24:57.079Z,72.69
2023-09-23T08:25:57.087Z,72.66
2023-09-23T08:26:57.504Z,72.51
2023-09-23T08:27:57.818Z,72.64
2023-09-23T08:28:58.373Z,72.42
2023-09-23T08:29:58.753Z,72.27
2023-09-23T08:30:59.167Z,71.64
2023-09-23T08:31:59.613Z,71.44
2023-09-23T08:32:59.979Z,71.54
2023-09-23T08:34:00.298Z,70.98
2023-09-23T08:35:00.675Z,71.51
2023-09-23T08:36:01.257Z,70.65
2023-09-23T08:37:01.577Z,70.65
2023-09-23T08:38:01.960Z,69.84
2023-09-23T08:39:02.290Z,69.67
2023-09-23T08:40:02.932Z,68.77
2023-09-23T08:41:05.732Z,70.23
2023-09-23T08:42:04.992Z,71.03
2023-09-23T08:43:06.107Z,70.3
2023-09-23T08:44:08.198Z,69.63
2023-09-23T08:45:09.332Z,69.92
2023-09-23T08:46:06.786Z,70.18
2023-09-23T08:47:07.228Z,70.1
2023-09-23T08:48:08.356Z,70.46
2023-09-23T08:49:08.297Z,70.39
2023-09-23T08:50:09.396Z,70.5
2023-09-23T08:51:12.209Z,70.7
2023-09-23T08:52:10.377Z,70.48
2023-09-23T08:53:10.119Z,71.12
2023-09-23T08:54:10.992Z,70.25
2023-09-23T08:55:12.951Z,70.01
2023-09-23T08:56:11.748Z,70.05
2023-09-23T08:57:11.627Z,70.2
2023-09-23T08:58:11.960Z,70.08
2023-09-23T08:59:12.480Z,69.75
2023-09-23T09:00:13.808Z,70.07
2023-09-23T09:01:13.118Z,70.11
2023-09-23T09:02:24.016Z,70.08
2023-09-23T09:03:16.526Z,69.77
2023-09-23T09:04:16.998Z,69.18
2023-09-23T09:05:17.430Z,69.57
2023-09-23T09:06:18.565Z,69.04
2023-09-23T09:07:18.147Z,68.64
2023-09-23T09:08:18.705Z,68.95
2023-09-23T09:09:18.879Z,68.84
2023-09-23T09:10:19.428Z,68.94
2023-09-23T09:11:24.045Z,69.14
2023-09-23T09:12:22.175Z,69.81
2023-09-23T09:13:22.077Z,70.12
2023-09-23T09:14:22.545Z,70.27
2023-09-23T09:15:23.116Z,70.9
2023-09-23T09:16:23.250Z,70.6
2023-09-23T09:17:23.685Z,70.86
2023-09-23T09:18:24.097Z,70.73
2023-09-23T09:19:24.473Z,70.26
2023-09-23T09:20:24.958Z,70.19
2023-09-23T09:21:27.255Z,69.75
2023-09-23T09:22:25.652Z,69.98
2023-09-23T09:23:32.119Z,69.85
2023-09-23T09:24:31.068Z,69.47
2023-09-23T09:25:31.105Z,70.31
2023-09-23T09:26:30.251Z,70.23
2023-09-23T09:27:30.676Z,69.47
2023-09-23T09:28:31.183Z,68.9
2023-09-23T09:29:31.641Z,69.07
2023-09-23T09:30:33.265Z,69.28
2023-09-23T09:31:36.760Z,70.12
2023-09-23T09:32:35.180Z,69.3
2023-09-23T09:33:35.006Z,69.39
2023-09-23T09:34:44.028Z,69.84
2023-09-23T09:35:37.773Z,69.37
2023-09-23T09:36:41.192Z,69.88
2023-09-23T09:37:42.797Z,69.66
2023-09-23T09:38:44.759Z,70.27
2023-09-23T09:40:46.934Z,69.53
2023-09-23T09:41:53.029Z,69.03
2023-09-23T09:42:55.057Z,68.2
2023-09-23T09:43:53.451Z,68.11
2023-09-23T09:44:53.932Z,68.27
2023-09-23T09:45:55.589Z,68.33
2023-09-23T09:46:55.931Z,68.61
2023-09-23T09:47:57.189Z,68.11
2023-09-23T09:48:56.531Z,68.22
2023-09-23T09:49:55.225Z,67.89
2023-09-23T09:50:56.630Z,68.34
2023-09-23T09:51:56.632Z,67.74
2023-09-23T09:52:56.400Z,67.56
2023-09-23T09:53:57.676Z,68.11
2023-09-23T09:54:59.527Z,67.89
2023-09-23T09:55:58.286Z,67.61
2023-09-23T09:56:58.081Z,67.4
2023-09-23T09:57:58.833Z,66.86
2023-09-23T09:59:01.942Z,67.2
2023-09-23T10:00:03.256Z,67.63
2023-09-23T10:01:02.843Z,67.81
2023-09-23T10:02:01.651Z,68.39
2023-09-23T10:03:05.786Z,68.14
2023-09-23T10:04:12.644Z,68.25
2023-09-23T10:05:05.612Z,67.93
2023-09-23T10:06:08.091Z,68.72
2023-09-23T10:07:08.631Z,68.35
2023-09-23T10:08:13.582Z,68.1
2023-09-23T10:09:16.504Z,69.23
2023-09-23T10:10:13.855Z,69.51
2023-09-23T10:11:14.396Z,69.38
2023-09-23T10:12:15.363Z,69.35
2023-09-23T10:13:22.384Z,69.55
2023-09-23T10:14:20.277Z,69.46
2023-09-23T10:15:28.030Z,70
2023-09-23T10:16:27.652Z,70.05
2023-09-23T10:17:30.198Z,70.98
2023-09-23T10:18:37.874Z,70.26
2023-09-23T10:19:34.402Z,69.83
2023-09-23T10:20:34.980Z,69.22
2023-09-23T10:21:35.737Z,69.27
2023-09-23T10:22:33.095Z,69.23
2023-09-23T10:23:38.910Z,69.13
2023-09-23T10:24:36.497Z,69.58
2023-09-23T10:25:41.087Z,68.67
2023-09-23T10:26:43.563Z,68.84
2023-09-23T10:27:54.928Z,68.96
2023-09-23T10:28:42.647Z,68.95
2023-09-23T10:29:44.317Z,68.64
2023-09-23T10:30:43.505Z,68.65
2023-09-23T10:31:43.687Z,68.58
2023-09-23T10:32:44.752Z,68.33
2023-09-23T10:33:44.538Z,68.99
2023-09-23T10:34:52.553Z,68.54
2023-09-23T10:35:50.200Z,67.88
2023-09-23T10:36:50.490Z,68.02
2023-09-23T10:37:50.999Z,68.77
2023-09-23T10:38:51.637Z,68.73
2023-09-23T10:39:51.736Z,68.15
2023-09-23T10:40:52.921Z,68.65
2023-09-23T10:41:52.781Z,68.89
2023-09-23T10:42:52.897Z,68.63
2023-09-23T10:43:53.596Z,68.91
2023-09-23T10:44:59.146Z,68.81
2023-09-23T10:45:57.238Z,69.17
2023-09-23T10:46:57.179Z,68.76
2023-09-23T10:47:57.471Z,68.76
2023-09-23T10:48:57.932Z,68.55
2023-09-23T10:49:58.602Z,68.61
2023-09-23T10:50:59.786Z,68.57
2023-09-23T10:51:59.284Z,68.38
2023-09-23T10:52:59.651Z,68.36
2023-09-23T10:54:00.633Z,68.74
2023-09-23T10:55:00.866Z,68.56
2023-09-23T10:56:00.979Z,68.37
2023-09-23T10:57:01.274Z,68.15
2023-09-23T10:58:05.055Z,68.65
2023-09-23T10:59:02.990Z,68.05
2023-09-23T11:00:03.437Z,68.44
2023-09-23T11:01:03.334Z,69.78
2023-09-23T11:02:04.365Z,69.31
2023-09-23T11:03:08.699Z,69.04
2023-09-23T11:04:07.031Z,69.5
2023-09-23T11:05:08.105Z,69.62
2023-09-23T11:06:07.701Z,69.74
2023-09-23T11:07:07.592Z,69.45
2023-09-23T11:08:09.880Z,69.62
2023-09-23T11:09:08.527Z,69.29
2023-09-23T11:10:12.532Z,68.93
2023-09-23T11:11:10.471Z,68.34
2023-09-23T11:12:14.470Z,68.17
2023-09-23T11:13:13.455Z,67.65
2023-09-23T11:14:15.789Z,67.48
2023-09-23T11:15:13.875Z,67.51
2023-09-23T11:16:13.784Z,67.54
2023-09-23T11:18:17.605Z,67.66
2023-09-23T11:19:16.466Z,66.92
2023-09-23T11:20:16.918Z,66.77
2023-09-23T11:21:16.998Z,66.65
2023-09-23T11:22:30.103Z,66.79
2023-09-23T11:23:17.470Z,66.89
2023-09-23T11:24:17.837Z,66.37
2023-09-23T11:25:19.442Z,66.23
2023-09-23T11:26:18.585Z,66.32
2023-09-23T11:27:19.028Z,67.13
2023-09-23T11:29:21.631Z,66.77
2023-09-23T11:30:21.869Z,67.17
2023-09-23T11:31:22.110Z,67.62
2023-09-23T11:32:25.692Z,68.05
2023-09-23T11:33:23.272Z,68.01
2023-09-23T11:34:23.627Z,68.33
2023-09-23T11:35:24.390Z,69.07
2023-09-23T11:36:24.465Z,69.03
2023-09-23T11:37:24.885Z,69.2
2023-09-23T11:38:25.251Z,69.42
2023-09-23T11:39:25.518Z,69.27
2023-09-23T11:40:25.927Z,69.19
2023-09-23T11:41:26.244Z,70
2023-09-23T11:42:26.646Z,68.94
2023-09-23T11:43:27.076Z,68.54
2023-09-23T11:44:27.555Z,67.95
2023-09-23T11:45:27.804Z,68.65
2023-09-23T11:46:28.201Z,68.98
2023-09-23T11:47:28.584Z,68.67
2023-09-23T11:48:28.987Z,69.37
2023-09-23T11:49:29.201Z,69.29
2023-09-23T11:50:29.777Z,69.7
2023-09-23T11:51:30.322Z,69.08
2023-09-23T11:52:30.303Z,69.1
2023-09-23T11:53:30.873Z,68.93
2023-09-23T11:54:31.464Z,68.93
2023-09-23T11:55:31.562Z,68.93
2023-09-23T11:56:32.101Z,69.31
2023-09-23T11:57:32.282Z,69.26
2023-09-23T11:58:32.708Z,69.01
2023-09-23T11:59:33.297Z,69.16
2023-09-23T12:00:33.528Z,69.21
2023-09-23T12:01:34.058Z,69.16
2023-09-23T12:02:34.361Z,69.87
2023-09-23T12:03:34.928Z,69.48
2023-09-23T12:04:35.391Z,69.22
2023-09-23T12:05:35.754Z,69.1
2023-09-23T12:06:36.039Z,69.11
2023-09-23T12:07:36.761Z,69.19
2023-09-23T12:08:36.998Z,69.62
2023-09-23T12:09:37.383Z,69.23
2023-09-23T12:10:37.704Z,69.81
2023-09-23T12:11:38.953Z,69.2
2023-09-23T12:12:38.641Z,68.93
2023-09-23T12:13:39.038Z,69.4
2023-09-23T12:14:41.008Z,69.52
2023-09-23T12:15:39.787Z,69.1
2023-09-23T12:16:40.209Z,68.1
2023-09-23T12:17:40.698Z,68.02
2023-09-23T12:18:40.923Z,68.18
2023-09-23T12:19:44.610Z,68.39
2023-09-23T12:20:42.014Z,68.45
2023-09-23T12:21:42.194Z,67.92
2023-09-23T12:22:42.644Z,67.32
2023-09-23T12:23:43.525Z,67.9
2023-09-23T12:24:43.724Z,68.13
2023-09-23T12:25:44.260Z,67.96
2023-09-23T12:26:43.999Z,67.69
2023-09-23T12:27:44.458Z,68.19
2023-09-23T12:28:44.598Z,68.07
2023-09-23T12:29:44.787Z,67.59
2023-09-23T12:30:45.405Z,67.31
2023-09-23T12:31:45.412Z,67.2
2023-09-23T12:32:46.214Z,66.75
2023-09-23T12:33:45.945Z,66.77
2023-09-23T12:34:46.390Z,66.91
2023-09-23T12:35:46.821Z,67.02
2023-09-23T12:36:47.082Z,66.78
2023-09-23T12:37:47.516Z,66.65
2023-09-23T12:38:48.165Z,66.72
2023-09-23T12:39:48.137Z,67.12
2023-09-23T12:40:48.538Z,67.99
2023-09-23T12:41:48.958Z,67.57
2023-09-23T12:42:49.083Z,67.48
2023-09-23T12:43:49.256Z,67.56
2023-09-23T12:44:49.618Z,67.41
2023-09-23T12:45:50.175Z,68.07
2023-09-23T12:46:50.532Z,68.1
2023-09-23T12:47:57.499Z,67.51
2023-09-23T12:48:55.679Z,67.82
2023-09-23T12:49:55.865Z,67.97
2023-09-23T12:50:56.248Z,67.73
2023-09-23T12:51:56.608Z,67.73
2023-09-23T12:52:56.978Z,68.71
2023-09-23T12:53:57.125Z,68.41
2023-09-23T12:54:57.448Z,68.28
2023-09-23T12:55:58.034Z,68.27
2023-09-23T12:56:58.073Z,68.68
2023-09-23T12:57:58.504Z,68.48
2023-09-23T12:58:58.727Z,69.04
2023-09-23T12:59:59.014Z,69.28
2023-09-23T13:00:59.614Z,69.03
2023-09-23T13:01:59.763Z,69.12
2023-09-23T13:03:00.237Z,69.1
2023-09-23T13:04:04.577Z,69.37
2023-09-23T13:05:02.140Z,69.19
2023-09-23T13:06:02.497Z,69